sensor_id;sensor_type;location;lat;lon;timestamp;temperature;humidity
8095;DHT22;4090;49.270;8.696;2023-05-10T00:00:43;17.70;99.90
8095;DHT22;4090;49.270;8.696;2023-05-10T00:03:24;17.70;99.90
8095;DHT22;4090;49.270;8.696;2023-05-10T00:06:06;17.60;99.90
8095;DHT22;4090;49.270;8.696;2023-05-10T00:08:48;17.60;99.90
8095;DHT22;4090;49.270;8.696;2023-05-10T00:11:30;17.60;99.90
8095;DHT22;4090;49.270;8.696;2023-05-10T00:14:11;17.60;99.90
8095;DHT22;4090;49.270;8.696;2023-05-10T00:16:54;17.60;99.90
8095;DHT22;4090;49.270;8.696;2023-05-10T00:19:36;17.60;99.90
8095;DHT22;4090;49.270;8.696;2023-05-10T00:22:18;17.50;99.90
8095;DHT22;4090;49.270;8.696;2023-05-10T00:25:00;17.50;99.90
8095;DHT22;4090;49.270;8.696;2023-05-10T00:27:41;17.50;99.90
8095;DHT22;4090;49.270;8.696;2023-05-10T00:30:23;17.50;99.90
8095;DHT22;4090;49.270;8.696;2023-05-10T00:33:06;17.50;99.90
8095;DHT22;4090;49.270;8.696;2023-05-10T00:35:48;17.50;99.90
8095;DHT22;4090;49.270;8.696;2023-05-10T00:38:30;17.50;99.90
8095;DHT22;4090;49.270;8.696;2023-05-10T00:41:12;17.50;99.90
8095;DHT22;4090;49.270;8.696;2023-05-10T00:43:54;17.50;99.90
8095;DHT22;4090;49.270;8.696;2023-05-10T00:46:37;17.40;99.90
8095;DHT22;4090;49.270;8.696;2023-05-10T00:49:20;17.40;99.90
8095;DHT22;4090;49.270;8.696;2023-05-10T00:52:02;17.40;99.90
8095;DHT22;4090;49.270;8.696;2023-05-10T00:54:45;17.30;99.90
8095;DHT22;4090;49.270;8.696;2023-05-10T00:57:27;17.30;99.90
8095;DHT22;4090;49.270;8.696;2023-05-10T01:00:09;17.30;99.90
8095;DHT22;4090;49.270;8.696;2023-05-10T01:02:52;17.30;99.90
8095;DHT22;4090;49.270;8.696;2023-05-10T01:05:35;17.30;99.90
8095;DHT22;4090;49.270;8.696;2023-05-10T01:08:17;17.30;99.90
8095;DHT22;4090;49.270;8.696;2023-05-10T01:10:59;17.30;99.90
8095;DHT22;4090;49.270;8.696;2023-05-10T01:13:42;17.30;99.90
8095;DHT22;4090;49.270;8.696;2023-05-10T01:16:24;17.30;99.90
8095;DHT22;4090;49.270;8.696;2023-05-10T01:19:10;17.30;99.90
8095;DHT22;4090;49.270;8.696;2023-05-10T01:21:57;17.30;99.90
8095;DHT22;4090;49.270;8.696;2023-05-10T01:28:02;17.10;99.90
8095;DHT22;4090;49.270;8.696;2023-05-10T01:30:53;17.10;99.90
8095;DHT22;4090;49.270;8.696;2023-05-10T01:33:43;17.10;99.90
8095;DHT22;4090;49.270;8.696;2023-05-10T01:36:31;17.10;99.90
8095;DHT22;4090;49.270;8.696;2023-05-10T01:39:15;17.10;99.90
8095;DHT22;4090;49.270;8.696;2023-05-10T01:42:00;17.10;99.90
8095;DHT22;4090;49.270;8.696;2023-05-10T01:44:46;17.10;99.90
8095;DHT22;4090;49.270;8.696;2023-05-10T01:47:32;17.10;99.90
8095;DHT22;4090;49.270;8.696;2023-05-10T01:50:18;17.10;99.90
8095;DHT22;4090;49.270;8.696;2023-05-10T01:53:01;17.10;99.90
8095;DHT22;4090;49.270;8.696;2023-05-10T01:55:45;17.10;99.90
8095;DHT22;4090;49.270;8.696;2023-05-10T01:58:28;17.10;99.90
8095;DHT22;4090;49.270;8.696;2023-05-10T02:01:11;17.10;99.90
8095;DHT22;4090;49.270;8.696;2023-05-10T02:03:53;17.10;99.90
8095;DHT22;4090;49.270;8.696;2023-05-10T02:06:39;17.10;99.90
8095;DHT22;4090;49.270;8.696;2023-05-10T02:09:22;17.00;99.90
8095;DHT22;4090;49.270;8.696;2023-05-10T02:12:05;17.00;99.90
8095;DHT22;4090;49.270;8.696;2023-05-10T02:14:47;17.00;99.90
8095;DHT22;4090;49.270;8.696;2023-05-10T02:17:30;17.00;99.90
8095;DHT22;4090;49.270;8.696;2023-05-10T02:20:12;17.00;99.90
8095;DHT22;4090;49.270;8.696;2023-05-10T02:22:55;17.00;99.90
8095;DHT22;4090;49.270;8.696;2023-05-10T02:25:37;17.00;99.90
8095;DHT22;4090;49.270;8.696;2023-05-10T02:28:20;17.00;99.90
8095;DHT22;4090;49.270;8.696;2023-05-10T02:31:02;17.00;99.90
8095;DHT22;4090;49.270;8.696;2023-05-10T02:33:45;17.00;99.90
8095;DHT22;4090;49.270;8.696;2023-05-10T02:36:27;17.00;99.90
8095;DHT22;4090;49.270;8.696;2023-05-10T02:39:10;17.00;99.90
8095;DHT22;4090;49.270;8.696;2023-05-10T02:41:53;17.00;99.90
8095;DHT22;4090;49.270;8.696;2023-05-10T02:44:35;17.00;99.90
8095;DHT22;4090;49.270;8.696;2023-05-10T02:47:17;16.90;99.90
8095;DHT22;4090;49.270;8.696;2023-05-10T02:50:00;16.90;99.90
8095;DHT22;4090;49.270;8.696;2023-05-10T02:52:42;16.90;99.90
8095;DHT22;4090;49.270;8.696;2023-05-10T02:55:28;16.90;99.90
8095;DHT22;4090;49.270;8.696;2023-05-10T02:58:12;16.90;99.90
8095;DHT22;4090;49.270;8.696;2023-05-10T03:00:54;17.00;99.90
8095;DHT22;4090;49.270;8.696;2023-05-10T03:03:36;16.90;99.90
8095;DHT22;4090;49.270;8.696;2023-05-10T03:06:18;17.00;99.90
8095;DHT22;4090;49.270;8.696;2023-05-10T03:08:59;16.90;99.90
8095;DHT22;4090;49.270;8.696;2023-05-10T03:11:49;17.00;99.90
8095;DHT22;4090;49.270;8.696;2023-05-10T03:14:39;16.90;99.90
8095;DHT22;4090;49.270;8.696;2023-05-10T03:17:25;16.90;99.90
8095;DHT22;4090;49.270;8.696;2023-05-10T03:20:12;16.90;99.90
8095;DHT22;4090;49.270;8.696;2023-05-10T03:22:59;16.90;99.90
8095;DHT22;4090;49.270;8.696;2023-05-10T03:25:43;16.90;99.90
8095;DHT22;4090;49.270;8.696;2023-05-10T03:28:27;16.90;99.90
8095;DHT22;4090;49.270;8.696;2023-05-10T03:31:09;16.90;99.90
8095;DHT22;4090;49.270;8.696;2023-05-10T03:33:51;16.90;99.90
8095;DHT22;4090;49.270;8.696;2023-05-10T03:36:38;16.90;99.90
8095;DHT22;4090;49.270;8.696;2023-05-10T03:39:21;16.90;99.90
8095;DHT22;4090;49.270;8.696;2023-05-10T03:42:07;16.90;99.90
8095;DHT22;4090;49.270;8.696;2023-05-10T03:44:53;16.90;99.90
8095;DHT22;4090;49.270;8.696;2023-05-10T03:47:35;16.90;99.90
8095;DHT22;4090;49.270;8.696;2023-05-10T03:50:17;16.90;99.90
8095;DHT22;4090;49.270;8.696;2023-05-10T03:52:59;16.90;99.90
8095;DHT22;4090;49.270;8.696;2023-05-10T03:55:42;16.90;99.90
8095;DHT22;4090;49.270;8.696;2023-05-10T03:58:24;16.80;99.90
8095;DHT22;4090;49.270;8.696;2023-05-10T04:01:07;16.90;99.90
8095;DHT22;4090;49.270;8.696;2023-05-10T04:03:49;16.80;99.90
8095;DHT22;4090;49.270;8.696;2023-05-10T04:06:30;16.90;99.90
8095;DHT22;4090;49.270;8.696;2023-05-10T04:09:12;16.90;99.90
8095;DHT22;4090;49.270;8.696;2023-05-10T04:11:54;16.90;99.90
8095;DHT22;4090;49.270;8.696;2023-05-10T04:14:36;16.90;99.90
8095;DHT22;4090;49.270;8.696;2023-05-10T04:17:19;16.90;99.90
8095;DHT22;4090;49.270;8.696;2023-05-10T04:20:00;16.90;99.90
8095;DHT22;4090;49.270;8.696;2023-05-10T04:22:43;16.90;99.90
8095;DHT22;4090;49.270;8.696;2023-05-10T04:25:25;16.90;99.90
8095;DHT22;4090;49.270;8.696;2023-05-10T04:28:07;16.90;99.90
8095;DHT22;4090;49.270;8.696;2023-05-10T04:30:49;16.80;99.90
8095;DHT22;4090;49.270;8.696;2023-05-10T04:33:32;16.80;99.90
8095;DHT22;4090;49.270;8.696;2023-05-10T04:36:14;16.80;99.90
8095;DHT22;4090;49.270;8.696;2023-05-10T04:38:55;16.80;99.90
8095;DHT22;4090;49.270;8.696;2023-05-10T04:41:37;16.80;99.90
8095;DHT22;4090;49.270;8.696;2023-05-10T04:44:19;16.70;99.90
8095;DHT22;4090;49.270;8.696;2023-05-10T04:47:01;16.80;99.90
8095;DHT22;4090;49.270;8.696;2023-05-10T04:49:44;16.80;99.90
8095;DHT22;4090;49.270;8.696;2023-05-10T04:52:26;16.80;99.90
8095;DHT22;4090;49.270;8.696;2023-05-10T04:55:08;16.70;99.90
8095;DHT22;4090;49.270;8.696;2023-05-10T04:57:50;16.70;99.90
8095;DHT22;4090;49.270;8.696;2023-05-10T05:00:32;16.70;99.90
8095;DHT22;4090;49.270;8.696;2023-05-10T05:03:14;16.70;99.90
8095;DHT22;4090;49.270;8.696;2023-05-10T05:05:57;16.70;99.90
8095;DHT22;4090;49.270;8.696;2023-05-10T05:08:39;16.70;99.90
8095;DHT22;4090;49.270;8.696;2023-05-10T05:11:21;16.70;99.90
8095;DHT22;4090;49.270;8.696;2023-05-10T05:14:02;16.70;99.90
8095;DHT22;4090;49.270;8.696;2023-05-10T05:16:44;16.70;99.90
8095;DHT22;4090;49.270;8.696;2023-05-10T05:19:26;16.70;99.90
8095;DHT22;4090;49.270;8.696;2023-05-10T05:22:09;16.60;99.90
8095;DHT22;4090;49.270;8.696;2023-05-10T05:24:50;16.60;99.90
8095;DHT22;4090;49.270;8.696;2023-05-10T05:27:32;16.60;99.90
8095;DHT22;4090;49.270;8.696;2023-05-10T05:30:14;16.60;99.90
8095;DHT22;4090;49.270;8.696;2023-05-10T05:32:55;16.70;99.90
8095;DHT22;4090;49.270;8.696;2023-05-10T05:35:37;16.60;99.90
8095;DHT22;4090;49.270;8.696;2023-05-10T05:38:20;16.70;99.90
8095;DHT22;4090;49.270;8.696;2023-05-10T05:41:02;16.70;99.90
8095;DHT22;4090;49.270;8.696;2023-05-10T05:43:44;16.70;99.90
8095;DHT22;4090;49.270;8.696;2023-05-10T05:46:25;16.70;99.90
8095;DHT22;4090;49.270;8.696;2023-05-10T05:49:07;16.70;99.90
8095;DHT22;4090;49.270;8.696;2023-05-10T05:51:49;16.70;99.90
8095;DHT22;4090;49.270;8.696;2023-05-10T05:54:32;16.70;99.90
8095;DHT22;4090;49.270;8.696;2023-05-10T05:57:14;16.70;99.90
8095;DHT22;4090;49.270;8.696;2023-05-10T05:59:55;16.70;99.90
8095;DHT22;4090;49.270;8.696;2023-05-10T06:02:37;16.70;99.90
8095;DHT22;4090;49.270;8.696;2023-05-10T06:05:19;16.60;99.90
8095;DHT22;4090;49.270;8.696;2023-05-10T06:08:01;16.70;99.90
8095;DHT22;4090;49.270;8.696;2023-05-10T06:10:44;16.70;99.90
8095;DHT22;4090;49.270;8.696;2023-05-10T06:13:26;16.70;99.90
8095;DHT22;4090;49.270;8.696;2023-05-10T06:16:12;16.70;99.90
8095;DHT22;4090;49.270;8.696;2023-05-10T06:18:54;16.70;99.90
8095;DHT22;4090;49.270;8.696;2023-05-10T06:21:35;16.70;99.90
8095;DHT22;4090;49.270;8.696;2023-05-10T06:24:17;16.70;99.90
8095;DHT22;4090;49.270;8.696;2023-05-10T06:27:00;16.70;99.90
8095;DHT22;4090;49.270;8.696;2023-05-10T06:29:42;16.70;99.90
8095;DHT22;4090;49.270;8.696;2023-05-10T06:32:24;16.80;99.90
8095;DHT22;4090;49.270;8.696;2023-05-10T06:35:06;16.80;99.90
8095;DHT22;4090;49.270;8.696;2023-05-10T06:37:48;16.80;99.90
8095;DHT22;4090;49.270;8.696;2023-05-10T06:40:29;16.90;99.90
8095;DHT22;4090;49.270;8.696;2023-05-10T06:43:13;16.90;99.90
8095;DHT22;4090;49.270;8.696;2023-05-10T06:45:54;16.90;99.90
8095;DHT22;4090;49.270;8.696;2023-05-10T06:48:36;17.00;99.90
8095;DHT22;4090;49.270;8.696;2023-05-10T06:51:18;16.90;99.90
8095;DHT22;4090;49.270;8.696;2023-05-10T06:54:01;16.90;99.90
8095;DHT22;4090;49.270;8.696;2023-05-10T06:56:43;16.90;99.90
8095;DHT22;4090;49.270;8.696;2023-05-10T06:59:26;17.00;99.90
8095;DHT22;4090;49.270;8.696;2023-05-10T07:02:08;17.00;99.90
8095;DHT22;4090;49.270;8.696;2023-05-10T07:04:50;17.00;99.90
8095;DHT22;4090;49.270;8.696;2023-05-10T07:07:32;17.00;99.90
8095;DHT22;4090;49.270;8.696;2023-05-10T07:10:14;16.90;99.90
8095;DHT22;4090;49.270;8.696;2023-05-10T07:12:56;16.90;99.90
8095;DHT22;4090;49.270;8.696;2023-05-10T07:15:39;16.90;99.90
8095;DHT22;4090;49.270;8.696;2023-05-10T07:18:21;17.00;99.90
8095;DHT22;4090;49.270;8.696;2023-05-10T07:21:02;17.00;99.90
8095;DHT22;4090;49.270;8.696;2023-05-10T07:23:44;16.90;99.90
8095;DHT22;4090;49.270;8.696;2023-05-10T07:26:26;17.00;99.90
8095;DHT22;4090;49.270;8.696;2023-05-10T07:29:08;17.00;99.90
8095;DHT22;4090;49.270;8.696;2023-05-10T07:31:52;16.90;99.90
8095;DHT22;4090;49.270;8.696;2023-05-10T07:34:33;17.00;99.90
8095;DHT22;4090;49.270;8.696;2023-05-10T07:37:15;17.00;99.90
8095;DHT22;4090;49.270;8.696;2023-05-10T07:39:57;17.10;99.90
8095;DHT22;4090;49.270;8.696;2023-05-10T07:42:38;17.10;99.90
8095;DHT22;4090;49.270;8.696;2023-05-10T07:45:20;17.10;99.90
8095;DHT22;4090;49.270;8.696;2023-05-10T07:48:03;17.20;99.90
8095;DHT22;4090;49.270;8.696;2023-05-10T07:50:45;17.20;99.90
8095;DHT22;4090;49.270;8.696;2023-05-10T07:53:27;17.20;99.90
8095;DHT22;4090;49.270;8.696;2023-05-10T07:56:22;17.20;99.90
8095;DHT22;4090;49.270;8.696;2023-05-10T07:59:04;17.20;99.90
8095;DHT22;4090;49.270;8.696;2023-05-10T08:01:47;17.10;99.90
8095;DHT22;4090;49.270;8.696;2023-05-10T08:04:30;17.10;99.90
8095;DHT22;4090;49.270;8.696;2023-05-10T08:07:12;17.20;99.90
8095;DHT22;4090;49.270;8.696;2023-05-10T08:09:53;17.20;99.90
8095;DHT22;4090;49.270;8.696;2023-05-10T08:12:35;17.20;99.90
8095;DHT22;4090;49.270;8.696;2023-05-10T08:15:17;17.20;99.90
8095;DHT22;4090;49.270;8.696;2023-05-10T08:17:58;17.30;99.90
8095;DHT22;4090;49.270;8.696;2023-05-10T08:20:41;17.20;99.90
8095;DHT22;4090;49.270;8.696;2023-05-10T08:23:23;17.20;99.90
8095;DHT22;4090;49.270;8.696;2023-05-10T08:26:05;17.30;99.90
8095;DHT22;4090;49.270;8.696;2023-05-10T08:28:47;17.30;99.90
8095;DHT22;4090;49.270;8.696;2023-05-10T08:31:28;17.30;99.90
8095;DHT22;4090;49.270;8.696;2023-05-10T08:34:10;17.30;99.90
8095;DHT22;4090;49.270;8.696;2023-05-10T08:36:53;17.30;99.90
8095;DHT22;4090;49.270;8.696;2023-05-10T08:39:35;17.40;99.90
8095;DHT22;4090;49.270;8.696;2023-05-10T08:42:19;17.40;99.90
8095;DHT22;4090;49.270;8.696;2023-05-10T08:45:01;17.40;99.90
8095;DHT22;4090;49.270;8.696;2023-05-10T08:47:43;17.50;99.90
8095;DHT22;4090;49.270;8.696;2023-05-10T08:50:25;17.50;99.90
8095;DHT22;4090;49.270;8.696;2023-05-10T08:53:10;17.50;99.90
8095;DHT22;4090;49.270;8.696;2023-05-10T08:55:52;17.50;99.90
8095;DHT22;4090;49.270;8.696;2023-05-10T08:58:34;17.50;99.90
8095;DHT22;4090;49.270;8.696;2023-05-10T09:01:17;17.50;99.90
8095;DHT22;4090;49.270;8.696;2023-05-10T09:03:59;17.50;99.90
8095;DHT22;4090;49.270;8.696;2023-05-10T09:06:41;17.50;99.90
8095;DHT22;4090;49.270;8.696;2023-05-10T09:09:24;17.60;99.90
8095;DHT22;4090;49.270;8.696;2023-05-10T09:12:06;17.60;99.90
8095;DHT22;4090;49.270;8.696;2023-05-10T09:14:51;17.60;99.90
8095;DHT22;4090;49.270;8.696;2023-05-10T09:17:33;17.60;99.90
8095;DHT22;4090;49.270;8.696;2023-05-10T09:20:15;17.70;99.90
8095;DHT22;4090;49.270;8.696;2023-05-10T09:22:58;17.70;99.90
8095;DHT22;4090;49.270;8.696;2023-05-10T09:25:42;17.70;99.90
8095;DHT22;4090;49.270;8.696;2023-05-10T09:28:23;17.80;99.90
8095;DHT22;4090;49.270;8.696;2023-05-10T09:31:05;17.80;99.90
8095;DHT22;4090;49.270;8.696;2023-05-10T09:33:47;17.80;99.90
8095;DHT22;4090;49.270;8.696;2023-05-10T09:36:29;17.90;99.90
8095;DHT22;4090;49.270;8.696;2023-05-10T09:39:11;17.90;99.90
8095;DHT22;4090;49.270;8.696;2023-05-10T09:41:54;18.00;99.90
8095;DHT22;4090;49.270;8.696;2023-05-10T09:44:36;18.00;99.90
8095;DHT22;4090;49.270;8.696;2023-05-10T09:47:18;18.00;99.90
8095;DHT22;4090;49.270;8.696;2023-05-10T09:50:00;18.10;99.90
8095;DHT22;4090;49.270;8.696;2023-05-10T09:52:49;18.10;99.90
8095;DHT22;4090;49.270;8.696;2023-05-10T09:55:38;18.10;99.90
8095;DHT22;4090;49.270;8.696;2023-05-10T09:58:21;18.10;99.90
8095;DHT22;4090;49.270;8.696;2023-05-10T10:01:03;18.10;99.90
8095;DHT22;4090;49.270;8.696;2023-05-10T10:03:45;18.20;99.90
8095;DHT22;4090;49.270;8.696;2023-05-10T10:06:27;18.20;99.90
8095;DHT22;4090;49.270;8.696;2023-05-10T10:09:09;18.20;99.90
8095;DHT22;4090;49.270;8.696;2023-05-10T10:11:51;18.20;99.90
8095;DHT22;4090;49.270;8.696;2023-05-10T10:14:34;18.30;99.90
8095;DHT22;4090;49.270;8.696;2023-05-10T10:17:16;18.30;99.90
8095;DHT22;4090;49.270;8.696;2023-05-10T10:19:58;18.40;99.90
8095;DHT22;4090;49.270;8.696;2023-05-10T10:22:40;18.40;99.90
8095;DHT22;4090;49.270;8.696;2023-05-10T10:25:24;18.40;99.90
8095;DHT22;4090;49.270;8.696;2023-05-10T10:28:09;18.40;99.90
8095;DHT22;4090;49.270;8.696;2023-05-10T10:30:55;18.50;99.90
8095;DHT22;4090;49.270;8.696;2023-05-10T10:33:40;18.50;99.90
8095;DHT22;4090;49.270;8.696;2023-05-10T10:36:25;18.60;99.90
8095;DHT22;4090;49.270;8.696;2023-05-10T10:39:09;18.60;99.90
8095;DHT22;4090;49.270;8.696;2023-05-10T10:41:51;18.60;99.90
8095;DHT22;4090;49.270;8.696;2023-05-10T10:44:36;18.60;99.90
8095;DHT22;4090;49.270;8.696;2023-05-10T10:47:23;18.50;99.90
8095;DHT22;4090;49.270;8.696;2023-05-10T10:50:07;18.50;99.90
8095;DHT22;4090;49.270;8.696;2023-05-10T10:52:49;18.50;99.90
8095;DHT22;4090;49.270;8.696;2023-05-10T10:55:32;18.60;99.90
8095;DHT22;4090;49.270;8.696;2023-05-10T10:58:28;18.60;99.90
8095;DHT22;4090;49.270;8.696;2023-05-10T11:01:10;18.60;99.90
8095;DHT22;4090;49.270;8.696;2023-05-10T11:06:53;18.60;99.90
8095;DHT22;4090;49.270;8.696;2023-05-10T11:09:55;18.60;99.90
8095;DHT22;4090;49.270;8.696;2023-05-10T11:12:50;18.70;99.90
8095;DHT22;4090;49.270;8.696;2023-05-10T11:15:32;18.60;99.90
8095;DHT22;4090;49.270;8.696;2023-05-10T11:18:17;18.60;99.90
8095;DHT22;4090;49.270;8.696;2023-05-10T11:21:00;18.60;99.90
8095;DHT22;4090;49.270;8.696;2023-05-10T11:23:50;18.70;99.90
8095;DHT22;4090;49.270;8.696;2023-05-10T11:26:33;18.70;99.90
8095;DHT22;4090;49.270;8.696;2023-05-10T11:29:15;18.60;99.90
8095;DHT22;4090;49.270;8.696;2023-05-10T11:31:57;18.60;99.90
8095;DHT22;4090;49.270;8.696;2023-05-10T11:34:39;18.50;99.90
8095;DHT22;4090;49.270;8.696;2023-05-10T11:37:21;18.50;99.90
8095;DHT22;4090;49.270;8.696;2023-05-10T11:40:05;18.50;99.90
8095;DHT22;4090;49.270;8.696;2023-05-10T11:42:46;18.50;99.90
8095;DHT22;4090;49.270;8.696;2023-05-10T11:45:28;18.50;99.90
8095;DHT22;4090;49.270;8.696;2023-05-10T11:48:11;18.50;99.90
8095;DHT22;4090;49.270;8.696;2023-05-10T11:50:53;18.60;99.90
8095;DHT22;4090;49.270;8.696;2023-05-10T11:53:37;18.50;99.90
8095;DHT22;4090;49.270;8.696;2023-05-10T11:56:21;18.50;99.90
8095;DHT22;4090;49.270;8.696;2023-05-10T11:59:03;18.50;99.90
8095;DHT22;4090;49.270;8.696;2023-05-10T12:01:45;18.50;99.90
8095;DHT22;4090;49.270;8.696;2023-05-10T12:04:27;18.50;99.90
8095;DHT22;4090;49.270;8.696;2023-05-10T12:07:09;18.40;99.90
8095;DHT22;4090;49.270;8.696;2023-05-10T12:10:04;18.40;99.90
8095;DHT22;4090;49.270;8.696;2023-05-10T12:12:48;18.30;99.90
8095;DHT22;4090;49.270;8.696;2023-05-10T12:15:33;18.30;99.90
8095;DHT22;4090;49.270;8.696;2023-05-10T12:18:14;18.30;99.90
8095;DHT22;4090;49.270;8.696;2023-05-10T12:21:03;18.30;99.90
8095;DHT22;4090;49.270;8.696;2023-05-10T12:23:46;18.30;99.90
8095;DHT22;4090;49.270;8.696;2023-05-10T12:26:28;18.20;99.90
8095;DHT22;4090;49.270;8.696;2023-05-10T12:29:15;18.20;99.90
8095;DHT22;4090;49.270;8.696;2023-05-10T12:31:57;18.20;99.90
8095;DHT22;4090;49.270;8.696;2023-05-10T12:34:39;18.20;99.90
8095;DHT22;4090;49.270;8.696;2023-05-10T12:37:23;18.30;99.90
8095;DHT22;4090;49.270;8.696;2023-05-10T12:40:06;18.30;99.90
8095;DHT22;4090;49.270;8.696;2023-05-10T12:42:48;18.30;99.90
8095;DHT22;4090;49.270;8.696;2023-05-10T12:45:31;18.30;99.90
8095;DHT22;4090;49.270;8.696;2023-05-10T12:48:13;18.40;99.90
8095;DHT22;4090;49.270;8.696;2023-05-10T12:50:55;18.50;99.90
8095;DHT22;4090;49.270;8.696;2023-05-10T12:53:37;18.50;99.90
8095;DHT22;4090;49.270;8.696;2023-05-10T12:56:23;18.50;99.90
8095;DHT22;4090;49.270;8.696;2023-05-10T12:59:05;18.60;99.90
8095;DHT22;4090;49.270;8.696;2023-05-10T13:01:48;18.70;99.90
8095;DHT22;4090;49.270;8.696;2023-05-10T13:04:30;18.80;99.90
8095;DHT22;4090;49.270;8.696;2023-05-10T13:07:12;18.80;99.90
8095;DHT22;4090;49.270;8.696;2023-05-10T13:09:53;18.80;99.90
8095;DHT22;4090;49.270;8.696;2023-05-10T13:12:35;18.80;99.90
8095;DHT22;4090;49.270;8.696;2023-05-10T13:15:17;18.90;99.90
8095;DHT22;4090;49.270;8.696;2023-05-10T13:18:00;18.90;99.90
8095;DHT22;4090;49.270;8.696;2023-05-10T13:20:42;19.00;99.90
8095;DHT22;4090;49.270;8.696;2023-05-10T13:23:24;19.00;99.90
8095;DHT22;4090;49.270;8.696;2023-05-10T13:26:06;19.10;99.90
8095;DHT22;4090;49.270;8.696;2023-05-10T13:28:47;19.10;99.90
8095;DHT22;4090;49.270;8.696;2023-05-10T13:31:31;19.10;99.90
8095;DHT22;4090;49.270;8.696;2023-05-10T13:34:14;19.10;99.90
8095;DHT22;4090;49.270;8.696;2023-05-10T13:36:56;19.20;99.90
8095;DHT22;4090;49.270;8.696;2023-05-10T13:39:38;19.20;99.90
8095;DHT22;4090;49.270;8.696;2023-05-10T13:42:19;19.30;99.90
8095;DHT22;4090;49.270;8.696;2023-05-10T13:45:01;19.30;99.90
8095;DHT22;4090;49.270;8.696;2023-05-10T13:47:45;19.40;99.90
8095;DHT22;4090;49.270;8.696;2023-05-10T13:50:28;19.40;99.90
8095;DHT22;4090;49.270;8.696;2023-05-10T13:53:09;19.40;99.90
8095;DHT22;4090;49.270;8.696;2023-05-10T13:55:51;19.50;99.90
8095;DHT22;4090;49.270;8.696;2023-05-10T13:58:33;19.50;99.90
8095;DHT22;4090;49.270;8.696;2023-05-10T14:01:16;19.50;99.90
8095;DHT22;4090;49.270;8.696;2023-05-10T14:03:57;19.50;99.90
8095;DHT22;4090;49.270;8.696;2023-05-10T14:06:40;19.60;99.90
8095;DHT22;4090;49.270;8.696;2023-05-10T14:09:22;19.60;99.90
8095;DHT22;4090;49.270;8.696;2023-05-10T14:12:04;19.60;99.90
8095;DHT22;4090;49.270;8.696;2023-05-10T14:14:46;19.60;99.90
8095;DHT22;4090;49.270;8.696;2023-05-10T14:17:27;19.60;99.90
8095;DHT22;4090;49.270;8.696;2023-05-10T14:20:09;19.60;99.90
8095;DHT22;4090;49.270;8.696;2023-05-10T14:22:53;19.70;99.90
8095;DHT22;4090;49.270;8.696;2023-05-10T14:25:35;19.60;99.90
8095;DHT22;4090;49.270;8.696;2023-05-10T14:28:16;19.70;99.90
8095;DHT22;4090;49.270;8.696;2023-05-10T14:30:59;19.70;99.90
8095;DHT22;4090;49.270;8.696;2023-05-10T14:33:41;19.70;99.90
8095;DHT22;4090;49.270;8.696;2023-05-10T14:36:23;19.70;99.90
8095;DHT22;4090;49.270;8.696;2023-05-10T14:39:06;19.70;99.90
8095;DHT22;4090;49.270;8.696;2023-05-10T14:41:48;19.80;99.90
8095;DHT22;4090;49.270;8.696;2023-05-10T14:44:31;19.80;99.90
8095;DHT22;4090;49.270;8.696;2023-05-10T14:47:13;19.80;99.90
8095;DHT22;4090;49.270;8.696;2023-05-10T14:49:55;19.80;99.90
8095;DHT22;4090;49.270;8.696;2023-05-10T14:52:36;19.90;99.90
8095;DHT22;4090;49.270;8.696;2023-05-10T14:55:19;19.90;99.90
8095;DHT22;4090;49.270;8.696;2023-05-10T14:58:01;19.90;99.90
8095;DHT22;4090;49.270;8.696;2023-05-10T15:00:43;19.90;99.90
8095;DHT22;4090;49.270;8.696;2023-05-10T15:03:25;19.90;99.90
8095;DHT22;4090;49.270;8.696;2023-05-10T15:06:07;19.90;99.90
8095;DHT22;4090;49.270;8.696;2023-05-10T15:08:49;19.80;99.90
8095;DHT22;4090;49.270;8.696;2023-05-10T15:11:32;19.80;99.90
8095;DHT22;4090;49.270;8.696;2023-05-10T15:14:14;19.80;99.90
8095;DHT22;4090;49.270;8.696;2023-05-10T15:16:55;19.90;99.90
8095;DHT22;4090;49.270;8.696;2023-05-10T15:19:37;19.80;99.90
8095;DHT22;4090;49.270;8.696;2023-05-10T15:22:19;19.80;99.90
8095;DHT22;4090;49.270;8.696;2023-05-10T15:25:01;19.80;99.90
8095;DHT22;4090;49.270;8.696;2023-05-10T15:27:44;19.80;99.90
8095;DHT22;4090;49.270;8.696;2023-05-10T15:30:26;19.90;99.90
8095;DHT22;4090;49.270;8.696;2023-05-10T15:33:08;19.90;99.90
8095;DHT22;4090;49.270;8.696;2023-05-10T15:35:50;19.90;99.90
8095;DHT22;4090;49.270;8.696;2023-05-10T15:38:31;19.90;99.90
8095;DHT22;4090;49.270;8.696;2023-05-10T15:41:13;19.90;99.90
8095;DHT22;4090;49.270;8.696;2023-05-10T15:43:56;20.00;99.90
8095;DHT22;4090;49.270;8.696;2023-05-10T15:46:40;19.90;99.90
8095;DHT22;4090;49.270;8.696;2023-05-10T15:49:21;20.00;99.90
8095;DHT22;4090;49.270;8.696;2023-05-10T15:52:03;20.00;99.90
8095;DHT22;4090;49.270;8.696;2023-05-10T15:54:45;20.10;99.90
8095;DHT22;4090;49.270;8.696;2023-05-10T15:57:26;20.10;99.90
8095;DHT22;4090;49.270;8.696;2023-05-10T16:00:10;20.10;99.90
8095;DHT22;4090;49.270;8.696;2023-05-10T16:02:53;20.10;99.90
8095;DHT22;4090;49.270;8.696;2023-05-10T16:05:34;20.10;99.90
8095;DHT22;4090;49.270;8.696;2023-05-10T16:08:16;20.20;99.90
8095;DHT22;4090;49.270;8.696;2023-05-10T16:10:58;20.20;99.90
8095;DHT22;4090;49.270;8.696;2023-05-10T16:13:39;20.10;99.90
8095;DHT22;4090;49.270;8.696;2023-05-10T16:16:23;20.10;99.90
8095;DHT22;4090;49.270;8.696;2023-05-10T16:19:04;20.10;99.90
8095;DHT22;4090;49.270;8.696;2023-05-10T16:21:46;20.10;99.90
8095;DHT22;4090;49.270;8.696;2023-05-10T16:24:28;20.00;99.90
8095;DHT22;4090;49.270;8.696;2023-05-10T16:27:10;20.00;99.90
8095;DHT22;4090;49.270;8.696;2023-05-10T16:29:52;20.00;99.90
8095;DHT22;4090;49.270;8.696;2023-05-10T16:32:35;20.00;99.90
8095;DHT22;4090;49.270;8.696;2023-05-10T16:35:17;20.00;99.90
8095;DHT22;4090;49.270;8.696;2023-05-10T16:37:59;20.00;99.90
8095;DHT22;4090;49.270;8.696;2023-05-10T16:40:41;20.00;99.90
8095;DHT22;4090;49.270;8.696;2023-05-10T16:43:22;20.00;99.90
8095;DHT22;4090;49.270;8.696;2023-05-10T16:46:08;19.90;99.90
8095;DHT22;4090;49.270;8.696;2023-05-10T16:48:51;19.90;99.90
8095;DHT22;4090;49.270;8.696;2023-05-10T16:51:33;20.00;99.90
8095;DHT22;4090;49.270;8.696;2023-05-10T16:54:15;19.90;99.90
8095;DHT22;4090;49.270;8.696;2023-05-10T16:56:57;19.90;99.90
8095;DHT22;4090;49.270;8.696;2023-05-10T16:59:40;19.90;99.90
8095;DHT22;4090;49.270;8.696;2023-05-10T17:02:22;19.90;99.90
8095;DHT22;4090;49.270;8.696;2023-05-10T17:05:05;19.90;99.90
8095;DHT22;4090;49.270;8.696;2023-05-10T17:07:47;19.90;99.90
8095;DHT22;4090;49.270;8.696;2023-05-10T17:10:29;19.90;99.90
8095;DHT22;4090;49.270;8.696;2023-05-10T17:13:11;19.90;99.90
8095;DHT22;4090;49.270;8.696;2023-05-10T17:15:53;19.80;99.90
8095;DHT22;4090;49.270;8.696;2023-05-10T17:18:35;19.80;99.90
8095;DHT22;4090;49.270;8.696;2023-05-10T17:21:18;19.80;99.90
8095;DHT22;4090;49.270;8.696;2023-05-10T17:24:00;19.80;99.90
8095;DHT22;4090;49.270;8.696;2023-05-10T17:26:43;19.80;99.90
8095;DHT22;4090;49.270;8.696;2023-05-10T17:29:25;19.80;99.90
8095;DHT22;4090;49.270;8.696;2023-05-10T17:32:07;19.80;99.90
8095;DHT22;4090;49.270;8.696;2023-05-10T17:34:49;19.80;99.90
8095;DHT22;4090;49.270;8.696;2023-05-10T17:37:32;19.80;99.90
8095;DHT22;4090;49.270;8.696;2023-05-10T17:40:14;19.80;99.90
8095;DHT22;4090;49.270;8.696;2023-05-10T17:42:56;19.80;99.90
8095;DHT22;4090;49.270;8.696;2023-05-10T17:45:37;19.70;99.90
8095;DHT22;4090;49.270;8.696;2023-05-10T17:48:19;19.70;99.90